createdAt,value
2018-02-10T00:00:14.102Z,-1.75
2018-02-10T00:01:21.702Z,-1.67
2018-02-10T00:02:26.588Z,-1.73
2018-02-10T00:03:30.884Z,-1.74
2018-02-10T00:04:35.123Z,-1.74
2018-02-10T00:05:39.333Z,-1.80
2018-02-10T00:06:43.507Z,-1.73
2018-02-10T00:07:47.792Z,-1.76
2018-02-10T00:08:51.994Z,-1.83
2018-02-10T00:09:56.200Z,-1.89
2018-02-10T00:11:00.636Z,-1.90
2018-02-10T00:12:04.979Z,-1.92
2018-02-10T00:13:09.219Z,-1.83
2018-02-10T00:14:13.796Z,-1.79
2018-02-10T00:15:18.252Z,-1.80
2018-02-10T00:16:22.476Z,-1.75
2018-02-10T00:17:27.192Z,-1.81
2018-02-10T00:18:31.354Z,-1.81
2018-02-10T00:19:35.580Z,-1.90
2018-02-10T00:20:40.109Z,-1.90
2018-02-10T00:21:44.377Z,-1.89
2018-02-10T00:22:49.904Z,-1.90
2018-02-10T00:23:54.141Z,-1.93
2018-02-10T00:24:58.577Z,-2.01
2018-02-10T00:26:03.357Z,-2.02
2018-02-10T00:27:07.937Z,-1.96
2018-02-10T00:28:12.263Z,-1.95
2018-02-10T00:29:16.458Z,-1.99
2018-02-10T00:30:21.127Z,-1.99
2018-02-10T00:31:25.290Z,-1.96
2018-02-10T00:32:29.543Z,-1.99
2018-02-10T00:33:34.040Z,-2.03
2018-02-10T00:34:38.346Z,-2.01
2018-02-10T00:35:42.612Z,-2.05
2018-02-10T00:36:46.971Z,-1.97
2018-02-10T00:37:51.166Z,-2.11
2018-02-10T00:38:55.829Z,-2.15
2018-02-10T00:40:00.278Z,-2.22
2018-02-10T00:41:04.839Z,-2.32
2018-02-10T00:42:09.292Z,-2.43
2018-02-10T00:43:14.449Z,-2.37
2018-02-10T00:44:18.742Z,-2.34
2018-02-10T00:45:23.880Z,-2.28
2018-02-10T00:46:28.077Z,-2.22
2018-02-10T00:47:32.287Z,-2.23
2018-02-10T00:48:36.696Z,-2.19
2018-02-10T00:49:40.921Z,-2.23
2018-02-10T00:50:45.112Z,-2.31
2018-02-10T00:51:49.728Z,-2.41
2018-02-10T00:52:53.908Z,-2.51
2018-02-10T00:53:58.214Z,-2.51
2018-02-10T00:55:02.765Z,-2.48
2018-02-10T00:56:06.964Z,-2.46
2018-02-10T00:57:12.376Z,-2.37
2018-02-10T00:58:16.523Z,-2.29
2018-02-10T00:59:20.721Z,-2.17
2018-02-10T01:01:32.664Z,-2.19
2018-02-10T01:02:37.315Z,-2.16
2018-02-10T01:03:41.706Z,-2.08
2018-02-10T01:04:46.285Z,-2.02
2018-02-10T01:05:50.473Z,-1.99
2018-02-10T01:06:54.688Z,-2.02
2018-02-10T01:07:58.960Z,-2.06
2018-02-10T01:09:03.489Z,-2.26
2018-02-10T01:10:07.652Z,-2.37
2018-02-10T01:11:12.672Z,-2.51
2018-02-10T01:12:17.290Z,-2.54
2018-02-10T01:13:21.729Z,-2.36
2018-02-10T01:14:25.928Z,-2.30
2018-02-10T01:15:30.354Z,-2.35
2018-02-10T01:16:34.828Z,-2.52
2018-02-10T01:17:38.956Z,-2.60
2018-02-10T01:18:43.080Z,-2.64
2018-02-10T01:19:47.241Z,-2.61
2018-02-10T01:20:51.420Z,-2.51
2018-02-10T01:21:56.026Z,-2.40
2018-02-10T01:23:00.401Z,-2.26
2018-02-10T01:24:04.816Z,-2.19
2018-02-10T01:25:08.965Z,-2.15
2018-02-10T01:26:14.003Z,-2.15
2018-02-10T01:27:18.304Z,-2.26
2018-02-10T01:28:22.817Z,-2.46
2018-02-10T01:29:26.966Z,-2.48
2018-02-10T01:30:31.588Z,-2.46
2018-02-10T01:31:35.746Z,-2.47
2018-02-10T01:32:40.008Z,-2.51
2018-02-10T01:33:44.524Z,-2.40
2018-02-10T01:34:49.099Z,-2.31
2018-02-10T01:35:53.244Z,-2.16
2018-02-10T01:36:57.496Z,-1.99
2018-02-10T01:38:02.303Z,-1.86
2018-02-10T01:39:07.729Z,-1.78
2018-02-10T01:40:12.522Z,-1.71
2018-02-10T01:41:16.724Z,-1.61
2018-02-10T01:42:21.388Z,-1.51
2018-02-10T01:43:25.612Z,-1.39
2018-02-10T01:44:29.920Z,-1.39
2018-02-10T01:45:34.271Z,-1.33
2018-02-10T01:46:38.731Z,-1.33
2018-02-10T01:47:44.219Z,-1.31
2018-02-10T01:48:49.411Z,-1.30
2018-02-10T01:50:02.477Z,-1.25
2018-02-10T01:51:06.675Z,-1.15
2018-02-10T01:52:11.150Z,-1.10
2018-02-10T01:53:17.033Z,-1.13
2018-02-10T01:54:22.577Z,-1.12
2018-02-10T01:55:26.712Z,-1.11
2018-02-10T01:56:30.929Z,-1.21
2018-02-10T01:57:35.087Z,-1.21
2018-02-10T01:58:39.217Z,-1.12
2018-02-10T01:59:43.331Z,-1.14
2018-02-10T02:00:48.296Z,-1.20
2018-02-10T02:01:52.512Z,-1.30
2018-02-10T02:02:56.678Z,-1.35
2018-02-10T02:04:01.149Z,-1.17
2018-02-10T02:05:05.647Z,-1.05
2018-02-10T02:06:09.948Z,-1.00
2018-02-10T02:07:15.236Z,-0.98
2018-02-10T02:08:19.619Z,-0.96
2018-02-10T02:09:24.692Z,-0.91
2018-02-10T02:10:28.913Z,-0.92
2018-02-10T02:11:33.048Z,-0.86
2018-02-10T02:12:37.187Z,-0.88
2018-02-10T02:13:41.828Z,-0.84
2018-02-10T02:14:45.997Z,-0.82
2018-02-10T02:15:50.540Z,-0.86
2018-02-10T02:16:54.682Z,-0.86
2018-02-10T02:17:59.183Z,-0.91
2018-02-10T02:19:03.620Z,-1.01
2018-02-10T02:20:08.228Z,-1.18
2018-02-10T02:21:12.973Z,-1.13
2018-02-10T02:22:17.124Z,-1.15
2018-02-10T02:23:21.879Z,-1.17
2018-02-10T02:24:27.012Z,-1.19
2018-02-10T02:25:31.328Z,-1.12
2018-02-10T02:26:35.528Z,-1.01
2018-02-10T02:27:39.695Z,-0.98
2018-02-10T02:28:43.868Z,-0.94
2018-02-10T02:29:48.051Z,-0.91
2018-02-10T02:30:52.592Z,-0.96
2018-02-10T02:31:57.332Z,-0.90
2018-02-10T02:33:02.441Z,-0.99
2018-02-10T02:34:06.940Z,-1.16
2018-02-10T02:35:11.372Z,-1.14
2018-02-10T02:36:15.532Z,-1.14
2018-02-10T02:37:19.688Z,-1.06
2018-02-10T02:38:24.980Z,-1.13
2018-02-10T02:39:29.907Z,-1.10
2018-02-10T02:40:34.251Z,-1.18
2018-02-10T02:41:38.503Z,-1.16
2018-02-10T02:42:42.625Z,-1.16
2018-02-10T02:43:47.179Z,-1.16
2018-02-10T02:44:51.789Z,-1.20
2018-02-10T02:45:56.280Z,-1.18
2018-02-10T02:47:00.905Z,-1.21
2018-02-10T02:48:05.400Z,-1.14
2018-02-10T02:49:09.575Z,-1.21
2018-02-10T02:50:13.754Z,-1.26
2018-02-10T02:51:18.449Z,-1.27
2018-02-10T02:52:23.164Z,-1.30
2018-02-10T02:53:28.233Z,-1.35
2018-02-10T02:54:32.442Z,-1.37
2018-02-10T02:55:36.908Z,-1.43
2018-02-10T02:56:41.070Z,-1.47
2018-02-10T02:57:45.519Z,-1.51
2018-02-10T02:58:49.668Z,-1.52
2018-02-10T02:59:53.864Z,-1.80
2018-02-10T03:00:58.332Z,-1.96
2018-02-10T03:02:02.701Z,-2.11
2018-02-10T03:03:07.522Z,-2.26
2018-02-10T03:04:11.679Z,-2.33
2018-02-10T03:05:16.060Z,-2.27
2018-02-10T03:06:20.207Z,-2.09
2018-02-10T03:07:24.622Z,-2.11
2018-02-10T03:08:29.268Z,-2.01
2018-02-10T03:09:33.492Z,-1.99
2018-02-10T03:10:37.723Z,-1.93
2018-02-10T03:11:41.872Z,-1.90
2018-02-10T03:12:46.064Z,-1.87
2018-02-10T03:13:50.237Z,-1.86
2018-02-10T03:14:54.811Z,-1.94
2018-02-10T03:15:59.556Z,-2.04
2018-02-10T03:17:04.054Z,-2.02
2018-02-10T03:18:08.311Z,-2.04
2018-02-10T03:19:13.311Z,-2.12
2018-02-10T03:20:17.536Z,-2.26
2018-02-10T03:21:22.155Z,-2.36
2018-02-10T03:22:26.355Z,-2.43
2018-02-10T03:23:30.488Z,-2.49
2018-02-10T03:24:34.637Z,-2.51
2018-02-10T03:25:39.012Z,-2.47
2018-02-10T03:26:43.497Z,-2.46
2018-02-10T03:27:47.659Z,-2.57
2018-02-10T03:28:52.288Z,-2.50
2018-02-10T03:29:56.803Z,-2.36
2018-02-10T03:31:01.603Z,-2.32
2018-02-10T03:32:06.118Z,-2.22
2018-02-10T03:33:11.348Z,-2.17
2018-02-10T03:34:15.941Z,-2.13
2018-02-10T03:35:20.092Z,-2.09
2018-02-10T03:36:24.271Z,-2.05
2018-02-10T03:37:28.684Z,-2.11
2018-02-10T03:38:33.560Z,-2.08
2018-02-10T03:39:38.097Z,-2.12
2018-02-10T03:40:42.573Z,-2.22
2018-02-10T03:41:46.981Z,-2.26
2018-02-10T03:42:51.279Z,-2.31
2018-02-10T03:43:55.999Z,-2.41
2018-02-10T03:45:00.968Z,-2.47
2018-02-10T03:46:06.713Z,-2.58
2018-02-10T03:47:11.553Z,-2.64
2018-02-10T03:48:15.970Z,-2.59
2018-02-10T03:49:20.543Z,-2.69
2018-02-10T03:50:25.037Z,-2.59
2018-02-10T03:51:29.812Z,-2.60
2018-02-10T03:52:33.920Z,-2.68
2018-02-10T03:53:38.297Z,-2.73
2018-02-10T03:54:42.789Z,-2.81
2018-02-10T03:55:46.930Z,-2.97
2018-02-10T03:56:51.105Z,-3.08
2018-02-10T03:57:55.225Z,-3.16
2018-02-10T03:58:59.647Z,-3.19
2018-02-10T04:00:05.157Z,-3.16
2018-02-10T04:01:10.223Z,-3.07
2018-02-10T04:02:14.411Z,-3.02
2018-02-10T04:03:18.570Z,-2.97
2018-02-10T04:04:23.197Z,-2.92
2018-02-10T04:05:27.845Z,-2.81
2018-02-10T04:06:32.136Z,-2.77
2018-02-10T04:07:36.299Z,-2.63
2018-02-10T04:08:40.440Z,-2.57
2018-02-10T04:09:44.593Z,-2.48
2018-02-10T04:10:49.341Z,-2.49
2018-02-10T04:11:53.471Z,-2.53
2018-02-10T04:12:57.791Z,-2.56
2018-02-10T04:14:02.476Z,-2.56
2018-02-10T04:15:07.056Z,-2.57
2018-02-10T04:16:12.620Z,-2.60
2018-02-10T04:17:17.142Z,-2.76
2018-02-10T04:18:21.269Z,-2.89
2018-02-10T04:19:26.308Z,-3.00
2018-02-10T04:20:30.458Z,-2.99
2018-02-10T04:21:34.668Z,-3.05
2018-02-10T04:22:38.803Z,-2.94
2018-02-10T04:23:43.479Z,-2.76
2018-02-10T04:24:48.721Z,-2.62
2018-02-10T04:25:52.871Z,-2.52
2018-02-10T04:26:57.276Z,-2.45
2018-02-10T04:28:01.936Z,-2.36
2018-02-10T04:29:06.453Z,-2.32
2018-02-10T04:30:12.946Z,-2.34
2018-02-10T04:31:17.513Z,-2.35
2018-02-10T04:32:22.063Z,-2.53
2018-02-10T04:33:27.092Z,-2.73
2018-02-10T04:34:31.467Z,-2.89
2018-02-10T04:35:35.660Z,-3.01
2018-02-10T04:36:40.191Z,-3.01
2018-02-10T04:37:44.421Z,-2.96
2018-02-10T04:38:48.687Z,-2.90
2018-02-10T04:39:52.807Z,-2.81
2018-02-10T04:40:56.940Z,-2.66
2018-02-10T04:42:01.360Z,-2.65
2018-02-10T04:43:05.803Z,-2.63
2018-02-10T04:44:10.005Z,-2.63
2018-02-10T04:45:16.529Z,-2.62
2018-02-10T04:46:21.579Z,-2.61
2018-02-10T04:47:26.355Z,-2.60
2018-02-10T04:48:30.504Z,-2.74
2018-02-10T04:49:35.195Z,-2.89
2018-02-10T04:50:39.315Z,-3.03
2018-02-10T04:51:43.533Z,-3.01
2018-02-10T04:52:47.760Z,-2.95
2018-02-10T04:53:52.758Z,-3.02
2018-02-10T04:54:56.911Z,-2.96
2018-02-10T04:56:01.757Z,-3.01
2018-02-10T04:57:06.051Z,-3.02
2018-02-10T04:58:10.202Z,-3.01
2018-02-10T04:59:15.337Z,-2.88
2018-02-10T05:00:19.771Z,-2.77
2018-02-10T05:01:23.930Z,-2.62
2018-02-10T05:02:28.475Z,-2.61
2018-02-10T05:03:32.600Z,-2.76
2018-02-10T05:04:36.755Z,-2.89
2018-02-10T05:05:40.919Z,-2.90
2018-02-10T05:06:45.061Z,-2.74
2018-02-10T05:07:49.382Z,-2.53
2018-02-10T05:08:53.894Z,-2.55
2018-02-10T05:09:58.673Z,-2.73
2018-02-10T05:11:03.470Z,-2.90
2018-02-10T05:12:07.626Z,-3.05
2018-02-10T05:13:11.845Z,-3.13
2018-02-10T05:14:15.999Z,-3.02
2018-02-10T05:15:20.562Z,-3.02
2018-02-10T05:16:25.125Z,-3.00
2018-02-10T05:17:29.358Z,-3.01
2018-02-10T05:18:33.506Z,-2.82
2018-02-10T05:19:38.400Z,-2.77
2018-02-10T05:20:42.943Z,-2.78
2018-02-10T05:21:47.122Z,-2.91
2018-02-10T05:22:51.275Z,-3.05
2018-02-10T05:23:55.659Z,-3.17
2018-02-10T05:25:00.406Z,-3.24
2018-02-10T05:26:05.584Z,-3.21
2018-02-10T05:27:10.324Z,-3.10
2018-02-10T05:28:14.742Z,-2.93
2018-02-10T05:29:19.636Z,-2.71
2018-02-10T05:30:24.138Z,-2.57
2018-02-10T05:31:29.425Z,-2.48
2018-02-10T05:32:34.187Z,-2.51
2018-02-10T05:33:38.964Z,-2.57
2018-02-10T05:34:43.279Z,-2.62
2018-02-10T05:35:47.620Z,-2.61
2018-02-10T05:36:51.752Z,-2.56
2018-02-10T05:37:56.388Z,-2.53
2018-02-10T05:39:00.523Z,-2.47
2018-02-10T05:40:05.106Z,-2.37
2018-02-10T05:41:09.824Z,-2.31
2018-02-10T05:42:14.340Z,-2.27
2018-02-10T05:43:19.778Z,-2.23
2018-02-10T05:44:23.939Z,-2.16
2018-02-10T05:45:28.660Z,-1.95
2018-02-10T05:46:32.811Z,-1.78
2018-02-10T05:47:36.943Z,-1.61
2018-02-10T05:48:42.210Z,-1.43
2018-02-10T05:49:46.345Z,-1.38
2018-02-10T05:50:50.572Z,-1.35
2018-02-10T05:51:55.148Z,-1.40
2018-02-10T05:52:59.271Z,-1.47
2018-02-10T05:54:03.419Z,-1.61
2018-02-10T05:55:07.538Z,-1.54
2018-02-10T05:56:11.875Z,-1.43
2018-02-10T05:57:16.159Z,-1.29
2018-02-10T05:58:20.621Z,-1.23
2018-02-10T05:59:24.773Z,-1.19
2018-02-10T06:00:29.396Z,-1.18
2018-02-10T06:01:33.971Z,-1.17
2018-02-10T06:02:38.892Z,-1.19
2018-02-10T06:03:43.432Z,-1.10
2018-02-10T06:04:47.750Z,-1.07
2018-02-10T06:05:52.371Z,-1.09
2018-02-10T06:06:56.852Z,-1.05
2018-02-10T06:08:01.122Z,-0.95
2018-02-10T06:09:05.951Z,-0.99
2018-02-10T06:10:10.634Z,-0.97
2018-02-10T06:11:15.320Z,-0.92
2018-02-10T06:12:19.478Z,-0.90
2018-02-10T06:13:23.616Z,-1.04
2018-02-10T06:14:27.749Z,-1.11
2018-02-10T06:15:32.428Z,-1.13
2018-02-10T06:16:37.100Z,-1.09
2018-02-10T06:17:41.228Z,-1.28
2018-02-10T06:18:45.402Z,-1.26
2018-02-10T06:19:49.543Z,-1.15
2018-02-10T06:20:53.763Z,-1.11
2018-02-10T06:21:58.461Z,-1.06
2018-02-10T06:23:02.603Z,-1.03
2018-02-10T06:24:06.829Z,-1.06
2018-02-10T06:25:11.903Z,-1.08
2018-02-10T06:26:16.117Z,-1.08
2018-02-10T06:27:20.368Z,-1.15
2018-02-10T06:28:25.647Z,-1.21
2018-02-10T06:29:29.782Z,-1.22
2018-02-10T06:30:34.343Z,-1.28
2018-02-10T06:31:38.627Z,-1.36
2018-02-10T06:32:43.018Z,-1.49
2018-02-10T06:33:47.521Z,-1.56
2018-02-10T06:34:52.361Z,-1.72
2018-02-10T06:35:56.498Z,-1.91
2018-02-10T06:37:00.819Z,-2.16
2018-02-10T06:38:04.963Z,-2.26
2018-02-10T06:39:09.262Z,-2.28
2018-02-10T06:40:14.844Z,-2.13
2018-02-10T06:41:19.293Z,-2.00
2018-02-10T06:42:24.720Z,-1.88
2018-02-10T06:43:29.080Z,-1.80
2018-02-10T06:44:33.436Z,-1.92
2018-02-10T06:45:39.225Z,-1.99
2018-02-10T06:46:43.783Z,-2.10
2018-02-10T06:47:48.317Z,-1.98
2018-02-10T06:48:52.748Z,-1.96
2018-02-10T06:49:57.343Z,-2.01
2018-02-10T06:51:01.832Z,-2.08
2018-02-10T06:52:06.688Z,-2.10
2018-02-10T06:53:11.152Z,-2.13
2018-02-10T06:54:15.929Z,-2.28
2018-02-10T06:55:20.382Z,-2.40
2018-02-10T06:56:24.824Z,-2.32
2018-02-10T06:57:28.969Z,-2.37
2018-02-10T06:58:34.737Z,-2.31
2018-02-10T06:59:38.919Z,-2.32
2018-02-10T07:00:43.424Z,-2.36
2018-02-10T07:01:47.907Z,-2.39
2018-02-10T07:02:52.174Z,-2.44
2018-02-10T07:03:56.354Z,-2.50
2018-02-10T07:05:00.509Z,-2.64
2018-02-10T07:06:04.671Z,-2.80
2018-02-10T07:07:08.825Z,-2.94
2018-02-10T07:08:13.177Z,-3.04
2018-02-10T07:09:18.889Z,-3.12
2018-02-10T07:10:26.876Z,-3.14
2018-02-10T07:11:33.079Z,-3.24
2018-02-10T07:12:37.231Z,-3.12
2018-02-10T07:13:41.508Z,-2.90
2018-02-10T07:14:45.635Z,-2.77
2018-02-10T07:15:50.132Z,-2.62
2018-02-10T07:16:54.586Z,-2.45
2018-02-10T07:17:59.484Z,-2.39
2018-02-10T07:19:03.933Z,-2.38
2018-02-10T07:20:10.966Z,-2.32
2018-02-10T07:21:15.764Z,-2.29
2018-02-10T07:22:19.916Z,-2.23
2018-02-10T07:23:25.098Z,-2.32
2018-02-10T07:24:29.652Z,-2.46
2018-02-10T07:25:33.795Z,-2.47
2018-02-10T07:26:38.123Z,-2.45
2018-02-10T07:27:42.336Z,-2.42
2018-02-10T07:28:46.529Z,-2.38
2018-02-10T07:29:50.737Z,-2.35
2018-02-10T07:30:55.970Z,-2.25
2018-02-10T07:32:00.121Z,-1.98
2018-02-10T07:33:04.444Z,-1.67
2018-02-10T07:34:08.583Z,-1.40
2018-02-10T07:35:13.019Z,-1.14
2018-02-10T07:36:17.776Z,-0.94
2018-02-10T07:37:21.972Z,-0.88
2018-02-10T07:38:26.646Z,-0.73
2018-02-10T07:39:30.973Z,-0.62
2018-02-10T07:40:35.795Z,-0.54
2018-02-10T07:41:39.936Z,-0.57
2018-02-10T07:42:44.689Z,-0.53
2018-02-10T07:43:48.886Z,-0.39
2018-02-10T07:44:53.019Z,-0.28
2018-02-10T07:45:57.389Z,-0.01
2018-02-10T07:47:01.519Z,0.16
2018-02-10T07:48:05.663Z,0.28
2018-02-10T07:49:10.295Z,0.34
2018-02-10T07:50:14.975Z,0.33
2018-02-10T07:51:19.132Z,0.23
2018-02-10T07:52:23.295Z,0.14
2018-02-10T07:53:28.231Z,0.04
2018-02-10T07:54:32.476Z,0.03
2018-02-10T07:55:37.303Z,-0.17
2018-02-10T07:56:41.459Z,-0.36
2018-02-10T07:57:45.755Z,-0.45
2018-02-10T07:58:49.938Z,-0.57
2018-02-10T07:59:54.120Z,-0.62
2018-02-10T08:00:58.591Z,-0.63
2018-02-10T08:02:03.362Z,-0.68
2018-02-10T08:03:07.529Z,-0.80
2018-02-10T08:04:11.880Z,-0.69
2018-02-10T08:05:16.612Z,-0.67
2018-02-10T08:06:20.852Z,-0.43
2018-02-10T08:07:26.781Z,-0.13
2018-02-10T08:08:31.467Z,0.09
2018-02-10T08:09:36.133Z,0.07
2018-02-10T08:10:40.316Z,0.10
2018-02-10T08:11:44.736Z,0.27
2018-02-10T08:12:48.883Z,0.21
2018-02-10T08:13:53.024Z,0.39
2018-02-10T08:14:57.496Z,0.51
2018-02-10T08:16:01.971Z,0.56
2018-02-10T08:17:06.226Z,0.63
2018-02-10T08:18:10.571Z,0.71
2018-02-10T08:19:14.967Z,0.82
2018-02-10T08:20:19.125Z,0.85
2018-02-10T08:21:23.377Z,0.80
2018-02-10T08:22:28.164Z,0.68
2018-02-10T08:23:32.309Z,0.69
2018-02-10T08:24:37.433Z,0.59
2018-02-10T08:25:41.648Z,0.56
2018-02-10T08:26:46.232Z,0.59
2018-02-10T08:27:50.445Z,0.58
2018-02-10T08:28:54.605Z,0.45
2018-02-10T08:29:58.756Z,0.38
2018-02-10T08:31:03.242Z,0.28
2018-02-10T08:32:07.903Z,0.22
2018-02-10T08:33:12.290Z,0.21
2018-02-10T08:34:16.745Z,0.11
2018-02-10T08:35:20.923Z,0.11
2018-02-10T08:36:25.284Z,0.09
2018-02-10T08:38:32.875Z,0.07
2018-02-10T08:39:37.666Z,0.13
2018-02-10T08:40:41.895Z,0.08
2018-02-10T08:41:46.142Z,0.14
2018-02-10T08:42:50.304Z,0.27
2018-02-10T08:43:54.480Z,0.16
2018-02-10T08:45:00.104Z,-0.13
2018-02-10T08:46:04.468Z,-0.34
2018-02-10T08:47:08.717Z,-0.31
2018-02-10T08:48:13.215Z,-0.10
2018-02-10T08:49:17.578Z,-0.09
2018-02-10T08:50:21.743Z,0.08
2018-02-10T08:51:26.850Z,0.16
2018-02-10T08:52:31.448Z,0.04
2018-02-10T08:53:35.691Z,0.21
2018-02-10T08:54:40.660Z,0.42
2018-02-10T08:55:44.817Z,0.53
2018-02-10T08:56:49.014Z,0.69
2018-02-10T08:57:55.300Z,0.80
2018-02-10T08:58:59.540Z,0.87
2018-02-10T09:00:05.290Z,0.88
2018-02-10T09:01:09.882Z,0.86
2018-02-10T09:02:14.467Z,0.73
2018-02-10T09:03:18.865Z,0.69
2018-02-10T09:04:26.674Z,0.69
2018-02-10T09:05:30.888Z,0.73
2018-02-10T09:06:35.996Z,0.71
2018-02-10T09:07:40.911Z,0.57
2018-02-10T09:08:45.108Z,0.61
2018-02-10T09:09:49.315Z,0.67
2018-02-10T09:10:54.010Z,0.70
2018-02-10T09:11:58.163Z,0.76
2018-02-10T09:13:02.503Z,0.80
2018-02-10T09:14:06.742Z,0.85
2018-02-10T09:15:13.590Z,0.80
2018-02-10T09:16:18.635Z,0.80
2018-02-10T09:17:22.849Z,0.60
2018-02-10T09:18:27.053Z,0.61
2018-02-10T09:19:31.269Z,0.57
2018-02-10T09:20:35.479Z,0.73
2018-02-10T09:21:39.862Z,0.86
2018-02-10T09:22:44.413Z,0.97
2018-02-10T09:23:48.584Z,1.03
2018-02-10T09:24:52.730Z,1.09
2018-02-10T09:25:57.011Z,1.11
2018-02-10T09:27:01.168Z,1.15
2018-02-10T09:28:05.344Z,1.14
2018-02-10T09:29:09.883Z,1.10
2018-02-10T09:30:16.981Z,1.06
2018-02-10T09:31:21.344Z,1.07
2018-02-10T09:32:25.548Z,1.01
2018-02-10T09:33:29.748Z,1.07
2018-02-10T09:34:33.931Z,0.99
2018-02-10T09:35:38.581Z,1.04
2018-02-10T09:36:42.889Z,1.11
2018-02-10T09:37:47.222Z,1.17
2018-02-10T09:38:51.394Z,1.25
2018-02-10T09:39:55.622Z,1.35
2018-02-10T09:40:59.870Z,1.44
2018-02-10T09:42:04.093Z,1.48
2018-02-10T09:43:08.355Z,1.54
2018-02-10T09:44:12.621Z,1.52
2018-02-10T09:45:18.709Z,1.55
2018-02-10T09:46:22.921Z,1.53
2018-02-10T09:47:27.158Z,1.38
2018-02-10T09:48:31.832Z,1.44
2018-02-10T09:49:36.114Z,1.41
2018-02-10T09:50:40.353Z,1.40
2018-02-10T09:51:44.570Z,1.49
2018-02-10T09:52:49.017Z,1.66
2018-02-10T09:53:53.225Z,1.82
2018-02-10T09:54:57.768Z,1.80
2018-02-10T09:56:02.008Z,1.83
2018-02-10T09:57:06.221Z,1.88
2018-02-10T09:58:10.453Z,1.87
2018-02-10T09:59:14.758Z,1.85
2018-02-10T10:00:19.510Z,1.87
2018-02-10T10:01:24.140Z,2.04
2018-02-10T10:02:28.330Z,1.84
2018-02-10T10:03:32.704Z,1.71
2018-02-10T10:04:36.883Z,1.76
2018-02-10T10:05:41.144Z,1.67
2018-02-10T10:06:45.341Z,1.63
2018-02-10T10:07:51.992Z,1.52
2018-02-10T10:08:56.565Z,1.48
2018-02-10T10:10:00.728Z,1.73
2018-02-10T10:11:04.954Z,1.99
2018-02-10T10:12:09.189Z,2.20
2018-02-10T10:13:14.197Z,2.32
2018-02-10T10:14:19.142Z,2.42
2018-02-10T10:15:23.841Z,2.54
2018-02-10T10:16:28.064Z,2.66
2018-02-10T10:17:32.249Z,2.78
2018-02-10T10:18:37.342Z,2.89
2018-02-10T10:20:50.078Z,2.84
2018-02-10T10:21:54.293Z,2.79
2018-02-10T10:22:58.601Z,2.68
2018-02-10T10:24:02.845Z,2.64
2018-02-10T10:25:07.072Z,2.73
2018-02-10T10:26:11.374Z,2.78
2018-02-10T10:27:15.992Z,2.87
2018-02-10T10:28:20.260Z,2.91
2018-02-10T10:29:24.493Z,3.05
2018-02-10T10:30:29.932Z,3.09
2018-02-10T10:31:34.900Z,3.23
2018-02-10T10:32:39.114Z,3.36
2018-02-10T10:33:44.558Z,3.48
2018-02-10T10:34:48.774Z,3.48
2018-02-10T10:35:53.112Z,3.44
2018-02-10T10:36:57.384Z,3.14
2018-02-10T10:38:01.588Z,2.84
2018-02-10T10:39:06.099Z,2.87
2018-02-10T10:40:10.347Z,2.90
2018-02-10T10:41:14.625Z,2.87
2018-02-10T10:42:18.864Z,2.93
2018-02-10T10:43:23.175Z,3.08
2018-02-10T10:44:27.540Z,3.06
2018-02-10T10:45:32.763Z,3.10
2018-02-10T10:46:38.273Z,3.14
2018-02-10T10:47:42.528Z,3.14
2018-02-10T10:48:46.854Z,3.03
2018-02-10T10:49:51.718Z,2.99
2018-02-10T10:50:55.959Z,2.92
2018-02-10T10:52:00.194Z,2.95
2018-02-10T10:53:05.617Z,2.87
2018-02-10T10:54:09.816Z,3.07
2018-02-10T10:55:14.137Z,3.23
2018-02-10T10:56:18.423Z,3.33
2018-02-10T10:57:22.619Z,3.31
2018-02-10T10:58:26.930Z,3.22
2018-02-10T10:59:31.514Z,3.13
2018-02-10T11:00:35.987Z,2.85
2018-02-10T11:01:40.499Z,2.91
2018-02-10T11:02:45.273Z,3.03
2018-02-10T11:03:49.520Z,3.02
2018-02-10T11:04:53.753Z,2.94
2018-02-10T11:05:58.956Z,2.89
2018-02-10T11:07:03.269Z,2.99
2018-02-10T11:08:07.481Z,3.06
2018-02-10T11:09:11.663Z,2.82
2018-02-10T11:10:15.982Z,2.50
2018-02-10T11:11:20.216Z,2.24
2018-02-10T11:12:24.589Z,2.10
2018-02-10T11:13:28.786Z,2.26
2018-02-10T11:14:32.980Z,2.51
2018-02-10T11:15:37.417Z,2.57
2018-02-10T11:16:41.940Z,2.48
2018-02-10T11:17:46.780Z,2.42
2018-02-10T11:18:50.976Z,2.44
2018-02-10T11:19:55.192Z,2.51
2018-02-10T11:20:59.471Z,2.54
2018-02-10T11:22:03.694Z,2.53
2018-02-10T11:23:08.248Z,2.60
2018-02-10T11:24:12.487Z,2.40
2018-02-10T11:25:16.748Z,2.45
2018-02-10T11:26:21.039Z,2.70
2018-02-10T11:27:25.305Z,3.05
2018-02-10T11:28:29.536Z,3.15
2018-02-10T11:29:34.249Z,3.07
2018-02-10T11:30:38.767Z,2.92
2018-02-10T11:31:43.500Z,2.70
2018-02-10T11:32:48.601Z,2.50
2018-02-10T11:33:52.849Z,2.44
2018-02-10T11:34:57.089Z,2.38
2018-02-10T11:36:01.340Z,2.38
2018-02-10T11:37:05.654Z,2.51
2018-02-10T11:38:09.957Z,2.73
2018-02-10T11:39:14.209Z,2.82
2018-02-10T11:40:18.411Z,2.97
2018-02-10T11:41:22.646Z,3.04
2018-02-10T11:42:27.353Z,2.75
2018-02-10T11:43:31.644Z,2.91
2018-02-10T11:44:35.845Z,2.84
2018-02-10T11:45:40.396Z,2.60
2018-02-10T11:46:44.685Z,2.31
2018-02-10T11:47:48.909Z,2.45
2018-02-10T11:48:53.610Z,2.66
2018-02-10T11:49:57.814Z,2.91
2018-02-10T11:51:02.520Z,2.84
2018-02-10T11:52:06.733Z,2.67
2018-02-10T11:53:10.983Z,2.35
2018-02-10T11:54:15.332Z,2.35
2018-02-10T11:55:20.077Z,2.52
2018-02-10T11:56:24.483Z,2.74
2018-02-10T11:57:28.737Z,2.83
2018-02-10T11:58:33.126Z,2.94
2018-02-10T11:59:37.378Z,3.07
2018-02-10T12:00:41.905Z,2.97
2018-02-10T12:01:46.525Z,2.85
2018-02-10T12:02:51.484Z,2.71
2018-02-10T12:03:56.525Z,2.41
2018-02-10T12:05:00.733Z,2.51
2018-02-10T12:06:05.012Z,2.55
2018-02-10T12:07:09.678Z,2.62
2018-02-10T12:08:13.909Z,2.47
2018-02-10T12:09:18.237Z,2.30
2018-02-10T12:10:22.554Z,2.14
2018-02-10T12:11:26.887Z,2.05
2018-02-10T12:12:31.128Z,2.06
2018-02-10T12:13:35.752Z,1.96
2018-02-10T12:14:39.991Z,1.93
2018-02-10T12:15:44.618Z,2.07
2018-02-10T12:16:48.890Z,2.40
2018-02-10T12:17:53.107Z,2.63
2018-02-10T12:18:58.346Z,2.75
2018-02-10T12:20:03.033Z,2.85
2018-02-10T12:21:07.341Z,2.73
2018-02-10T12:22:11.539Z,2.41
2018-02-10T12:23:16.724Z,2.40
2018-02-10T12:24:20.987Z,2.42
2018-02-10T12:25:25.270Z,2.58
2018-02-10T12:26:29.559Z,2.71
2018-02-10T12:27:33.773Z,2.97
2018-02-10T12:28:37.981Z,3.11
2018-02-10T12:29:42.211Z,3.26
2018-02-10T12:30:46.759Z,3.21
2018-02-10T12:31:50.997Z,3.30
2018-02-10T12:32:55.527Z,3.36
2018-02-10T12:33:59.810Z,3.39
2018-02-10T12:35:04.943Z,3.31
2018-02-10T12:36:10.285Z,3.16
2018-02-10T12:37:14.559Z,3.30
2018-02-10T12:38:18.760Z,3.32
2018-02-10T12:39:23.437Z,3.30
2018-02-10T12:40:27.759Z,3.34
2018-02-10T12:41:32.011Z,3.53
2018-02-10T12:42:36.181Z,3.71
2018-02-10T12:43:40.422Z,3.77
2018-02-10T12:44:44.680Z,3.53
2018-02-10T12:45:49.661Z,3.49
2018-02-10T12:46:53.867Z,3.53
2018-02-10T12:53:47.123Z,3.40
2018-02-10T12:54:51.445Z,3.00
2018-02-10T12:55:55.728Z,3.11
2018-02-10T12:57:00.024Z,3.18
2018-02-10T12:58:04.688Z,3.22
2018-02-10T12:59:08.928Z,3.32
2018-02-10T13:00:15.514Z,3.32
2018-02-10T13:01:19.736Z,3.14
2018-02-10T13:02:24.049Z,3.11
2018-02-10T13:03:28.415Z,3.26
2018-02-10T13:04:33.261Z,3.28
2018-02-10T13:05:37.458Z,3.18
2018-02-10T13:06:41.704Z,2.91
2018-02-10T13:07:46.009Z,2.68
2018-02-10T13:08:50.307Z,2.59
2018-02-10T13:09:54.545Z,2.50
2018-02-10T13:10:59.186Z,2.49
2018-02-10T13:12:03.413Z,2.55
2018-02-10T13:13:08.180Z,2.49
2018-02-10T13:14:13.374Z,2.64
2018-02-10T13:15:17.816Z,2.76
2018-02-10T13:16:22.048Z,2.65
2018-02-10T13:17:26.619Z,2.58
2018-02-10T13:18:30.940Z,2.71
2018-02-10T13:19:35.164Z,2.75
2018-02-10T13:20:39.429Z,2.54
2018-02-10T13:21:43.637Z,2.49
2018-02-10T13:22:47.864Z,2.45
2018-02-10T13:23:52.609Z,2.59
2018-02-10T13:24:56.807Z,2.73
2018-02-10T13:26:02.473Z,2.76
2018-02-10T13:27:06.695Z,2.68
2018-02-10T13:28:11.588Z,2.53
2018-02-10T13:29:15.898Z,2.46
2018-02-10T13:30:20.848Z,2.42
2018-02-10T13:31:25.059Z,2.39
2018-02-10T13:32:29.290Z,2.43
2018-02-10T13:33:34.215Z,2.38
2018-02-10T13:34:38.538Z,2.46
2018-02-10T13:36:54.957Z,2.44
2018-02-10T13:37:59.193Z,2.52
2018-02-10T13:39:04.106Z,2.56
2018-02-10T13:40:08.348Z,2.44
2018-02-10T13:41:13.170Z,2.51
2018-02-10T13:42:17.759Z,2.62
2018-02-10T13:43:22.051Z,2.58
2018-02-10T13:44:26.289Z,2.49
2018-02-10T13:45:31.437Z,2.26
2018-02-10T13:46:35.730Z,2.12
2018-02-10T13:47:40.039Z,2.09
2018-02-10T13:48:44.820Z,2.14
2018-02-10T13:49:49.064Z,2.17
2018-02-10T13:50:53.350Z,2.22
2018-02-10T13:51:57.689Z,2.26
2018-02-10T13:53:02.065Z,2.33
2018-02-10T13:54:07.018Z,2.35
2018-02-10T13:55:11.504Z,2.33
2018-02-10T13:56:16.615Z,2.33
2018-02-10T13:57:21.771Z,2.52
2018-02-10T13:58:26.009Z,2.61
2018-02-10T13:59:30.522Z,2.60
2018-02-10T14:00:35.072Z,2.64
2018-02-10T14:01:39.507Z,2.71
2018-02-10T14:02:43.820Z,2.84
2018-02-10T14:03:56.831Z,2.80
2018-02-10T14:05:01.124Z,2.57
2018-02-10T14:06:05.378Z,2.68
2018-02-10T14:07:10.605Z,2.78
2018-02-10T14:08:15.125Z,2.89
2018-02-10T14:09:19.451Z,2.96
2018-02-10T14:10:23.706Z,3.08
2018-02-10T14:11:27.928Z,3.11
2018-02-10T14:12:32.304Z,3.02